Decoded Metar for UKHH (KHARKOV in UKRAINE) (IATA:N/A) | Meteo·Mobile Aviation Weather
aviador You're here:

UKHH Decoded Metar

KHARKOV in UKRAINE
Report Time2018-10-17 21:00:00
UTC Time2018-10-17 21:10:31
Flight Rules mvfr MVFR
Wind360° at 4 kt
W.Decomp.*RWY 07: 0.8 kt HW 3.9 kt LCW
Visibility5000 m
Phenomena:Mist
Clouds:N/A
Expected CloudBase > 1,200 ft AGL from Temp-Dew spread
CeilingNone
Temp12°C (ISA -2)
Dew Point09°C (82% RH)
AAT10.3°C
QNH1026 hPa
Density Alt-10 ft
Elevation509 ft
Report Wrong Elevation
Raw Report
METAR UKHH 172100Z 36002MPS 5000 BR NSC 12/09 Q1026
R07/0///72 NOSIG=

Extra information for UKHH:More info

Metar Taf Metar & Taf Last 4 Metars F.Rules Stats Wind Profile Meteogram Temp Stats Airport Information Weather charts Add Link Nearby VenuesMetar ALERT Operation Metar Decoded Social comments